createdAt,value
2019-04-07T00:00:32.562Z,24.07
2019-04-07T00:03:01.710Z,22.30
2019-04-07T00:05:31.057Z,22.27
2019-04-07T00:08:00.799Z,22.32
2019-04-07T00:10:30.422Z,23.30
2019-04-07T00:12:59.608Z,22.30
2019-04-07T00:15:29.089Z,23.02
2019-04-07T00:17:58.212Z,24.30
2019-04-07T00:20:27.699Z,25.05
2019-04-07T00:22:57.337Z,24.15
2019-04-07T00:25:26.479Z,25.48
2019-04-07T00:27:55.505Z,26.20
2019-04-07T00:30:24.671Z,24.55
2019-04-07T00:32:53.811Z,25.05
2019-04-07T00:35:30.497Z,24.27
2019-04-07T00:37:53.914Z,25.68
2019-04-07T00:40:22.947Z,25.05
2019-04-07T00:42:51.929Z,22.37
2019-04-07T00:45:21.505Z,23.77
2019-04-07T00:47:51.442Z,24.27
2019-04-07T00:50:20.620Z,24.07
2019-04-07T00:52:50.198Z,26.62
2019-04-07T00:55:19.385Z,24.32
2019-04-07T00:57:48.332Z,25.92
2019-04-07T01:00:18.195Z,24.23
2019-04-07T01:02:47.589Z,25.17
2019-04-07T01:05:16.914Z,25.68
2019-04-07T01:07:46.377Z,24.67
2019-04-07T01:10:16.244Z,24.72
2019-04-07T01:12:45.788Z,23.95
2019-04-07T01:15:15.312Z,23.55
2019-04-07T01:17:44.580Z,25.27
2019-04-07T01:20:14.129Z,25.27
2019-04-07T01:22:43.250Z,25.00
2019-04-07T01:25:12.663Z,24.18
2019-04-07T01:27:42.401Z,23.85
2019-04-07T01:30:11.819Z,25.08
2019-04-07T01:32:40.976Z,24.92
2019-04-07T01:35:10.238Z,26.05
2019-04-07T01:37:39.628Z,24.23
2019-04-07T01:40:10.217Z,26.15
2019-04-07T01:42:41.060Z,24.10
2019-04-07T01:45:12.673Z,22.60
2019-04-07T01:47:43.410Z,24.10
2019-04-07T01:50:32.775Z,25.27
2019-04-07T01:53:03.605Z,22.95
2019-04-07T01:55:50.924Z,23.73
2019-04-07T01:58:21.883Z,23.60
2019-04-07T02:00:55.441Z,23.67
2019-04-07T02:03:26.543Z,23.10
2019-04-07T02:06:01.591Z,24.30
2019-04-07T02:08:32.666Z,23.50
2019-04-07T02:11:18.733Z,23.65
2019-04-07T02:13:58.453Z,23.73
2019-04-07T02:16:41.989Z,24.20
2019-04-07T02:19:21.869Z,23.73
2019-04-07T02:22:10.311Z,23.02
2019-04-07T02:24:43.851Z,23.10
2019-04-07T02:27:33.419Z,22.93
2019-04-07T02:30:21.720Z,23.52
2019-04-07T02:32:55.353Z,22.90
2019-04-07T02:35:28.629Z,25.55
2019-04-07T02:38:05.009Z,26.60
2019-04-07T02:40:39.394Z,27.05
2019-04-07T02:43:10.539Z,25.48
2019-04-07T02:45:47.473Z,24.55
2019-04-07T02:48:18.286Z,24.40
2019-04-07T02:50:51.573Z,26.60
2019-04-07T02:53:39.158Z,25.15
2019-04-07T02:56:10.117Z,26.05
2019-04-07T02:58:47.787Z,25.77
2019-04-07T03:01:26.211Z,25.60
2019-04-07T03:04:09.578Z,27.10
2019-04-07T03:06:53.567Z,27.02
2019-04-07T03:09:36.797Z,24.05
2019-04-07T03:12:23.740Z,25.12
2019-04-07T03:15:03.389Z,24.05
2019-04-07T03:17:34.869Z,26.70
2019-04-07T03:20:10.426Z,26.20
2019-04-07T03:22:41.896Z,24.87
2019-04-07T03:25:28.912Z,26.40
2019-04-07T03:28:18.337Z,26.57
2019-04-07T03:31:06.241Z,25.52
2019-04-07T03:33:43.385Z,25.85
2019-04-07T03:36:17.432Z,26.50
2019-04-07T03:38:54.488Z,27.27
2019-04-07T03:41:43.984Z,25.70
2019-04-07T03:44:20.567Z,25.23
2019-04-07T03:46:51.164Z,25.75
2019-04-07T03:49:39.884Z,25.08
2019-04-07T03:52:11.783Z,24.80
2019-04-07T03:54:46.507Z,26.02
2019-04-07T03:57:24.148Z,24.87
2019-04-07T04:00:02.071Z,24.27
2019-04-07T04:02:39.100Z,25.23
2019-04-07T04:05:15.910Z,25.30
2019-04-07T04:07:52.668Z,26.00
2019-04-07T04:10:23.808Z,25.20
2019-04-07T04:13:00.999Z,23.95
2019-04-07T04:15:34.778Z,24.63
2019-04-07T04:18:03.962Z,24.05
2019-04-07T04:20:33.207Z,24.90
2019-04-07T04:23:02.147Z,23.92
2019-04-07T04:25:32.039Z,25.30
2019-04-07T04:28:01.515Z,25.15
2019-04-07T04:30:30.802Z,24.55
2019-04-07T04:32:59.834Z,23.65
2019-04-07T04:35:29.933Z,22.80
2019-04-07T04:37:59.757Z,23.32
2019-04-07T04:40:29.792Z,22.70
2019-04-07T04:42:58.885Z,22.00
2019-04-07T04:45:27.929Z,20.20
2019-04-07T04:47:57.235Z,20.90
2019-04-07T04:50:26.243Z,20.82
2019-04-07T04:52:55.292Z,18.27
2019-04-07T04:55:25.406Z,19.67
2019-04-07T04:57:54.596Z,17.37
2019-04-07T05:00:28.485Z,17.98
2019-04-07T05:03:18.019Z,18.65
2019-04-07T05:05:47.764Z,17.73
2019-04-07T05:08:17.566Z,18.12
2019-04-07T05:10:47.324Z,21.15
2019-04-07T05:13:16.983Z,18.82
2019-04-07T05:15:46.818Z,18.55
2019-04-07T05:18:16.583Z,18.82
2019-04-07T05:20:45.726Z,18.23
2019-04-07T05:23:15.196Z,15.58
2019-04-07T05:25:44.916Z,16.55
2019-04-07T05:28:14.039Z,18.00
2019-04-07T05:30:43.551Z,17.07
2019-04-07T05:33:13.975Z,18.45
2019-04-07T05:35:43.164Z,20.08
2019-04-07T05:38:12.432Z,20.27
2019-04-07T05:40:42.113Z,21.97
2019-04-07T05:43:11.860Z,21.33
2019-04-07T05:45:41.147Z,22.07
2019-04-07T05:48:10.736Z,19.98
2019-04-07T05:50:40.564Z,20.85
2019-04-07T05:53:12.090Z,23.45
2019-04-07T05:55:40.560Z,23.18
2019-04-07T05:58:10.543Z,21.55
2019-04-07T06:00:40.497Z,22.20
2019-04-07T06:03:09.538Z,21.85
2019-04-07T06:05:38.665Z,23.77
2019-04-07T06:08:22.548Z,22.22
2019-04-07T06:10:38.782Z,21.70
2019-04-07T06:13:11.098Z,21.52
2019-04-07T06:15:39.134Z,21.75
2019-04-07T06:18:08.534Z,20.95
2019-04-07T06:20:37.990Z,22.45
2019-04-07T06:23:07.377Z,22.90
2019-04-07T06:25:40.875Z,20.65
2019-04-07T06:28:07.373Z,21.45
2019-04-07T06:30:37.257Z,20.70
2019-04-07T06:33:07.345Z,20.85
2019-04-07T06:35:36.626Z,21.10
2019-04-07T06:38:07.894Z,19.98
2019-04-07T06:40:37.427Z,19.82
2019-04-07T06:43:07.377Z,20.12
2019-04-07T06:45:54.916Z,20.72
2019-04-07T06:48:24.098Z,19.12
2019-04-07T06:50:59.322Z,18.95
2019-04-07T06:53:35.422Z,18.07
2019-04-07T06:56:09.898Z,19.95
2019-04-07T06:58:41.740Z,18.73
2019-04-07T07:01:28.482Z,15.63
2019-04-07T07:04:08.602Z,16.75
2019-04-07T07:06:40.627Z,17.32
2019-04-07T07:09:21.275Z,17.05
2019-04-07T07:12:18.663Z,15.43
2019-04-07T07:14:44.515Z,15.80
2019-04-07T07:17:16.986Z,16.75
2019-04-07T07:20:04.370Z,15.60
2019-04-07T07:22:47.881Z,16.35
2019-04-07T07:25:18.614Z,15.83
2019-04-07T07:27:47.808Z,14.73
2019-04-07T07:30:18.340Z,13.85
2019-04-07T07:32:48.603Z,15.53
2019-04-07T07:35:18.046Z,13.35
2019-04-07T07:37:47.591Z,13.30
2019-04-07T07:40:18.390Z,11.28
2019-04-07T07:42:50.692Z,13.13
2019-04-07T07:45:18.723Z,10.58
2019-04-07T07:47:51.996Z,9.25
2019-04-07T07:50:19.092Z,9.15
2019-04-07T07:52:51.300Z,9.05
2019-04-07T07:55:19.701Z,9.40
2019-04-07T07:57:49.166Z,9.28
2019-04-07T08:00:18.978Z,9.80
2019-04-07T08:02:50.096Z,9.50
2019-04-07T08:05:18.918Z,8.88
2019-04-07T08:07:49.452Z,9.20
2019-04-07T08:10:18.761Z,8.00
2019-04-07T08:12:49.472Z,8.68
2019-04-07T08:15:22.826Z,7.67
2019-04-07T08:17:49.530Z,8.40
2019-04-07T08:20:18.632Z,8.18
2019-04-07T08:22:48.194Z,7.83
2019-04-07T08:25:20.379Z,7.65
2019-04-07T08:27:48.746Z,7.50
2019-04-07T08:30:18.451Z,7.55
2019-04-07T08:32:47.803Z,7.10
2019-04-07T08:35:17.608Z,7.72
2019-04-07T08:37:48.702Z,7.70
2019-04-07T08:40:17.643Z,6.30
2019-04-07T08:42:49.084Z,6.55
2019-04-07T08:45:18.003Z,6.55
2019-04-07T08:47:48.889Z,6.87
2019-04-07T08:50:17.801Z,6.67
2019-04-07T08:52:46.836Z,6.55
2019-04-07T08:55:15.873Z,6.47
2019-04-07T08:57:45.677Z,6.83
2019-04-07T09:00:20.344Z,6.15
2019-04-07T09:03:00.219Z,6.25
2019-04-07T09:05:26.862Z,6.50
2019-04-07T09:07:52.820Z,5.83
2019-04-07T09:10:27.382Z,6.10
2019-04-07T09:12:56.754Z,6.25
2019-04-07T09:15:45.314Z,6.83
2019-04-07T09:18:26.512Z,5.78
2019-04-07T09:20:57.448Z,6.10
2019-04-07T09:23:43.207Z,6.37
2019-04-07T09:26:21.899Z,5.90
2019-04-07T09:28:55.869Z,5.47
2019-04-07T09:31:38.481Z,6.45
2019-04-07T09:34:09.295Z,5.92
2019-04-07T09:36:40.677Z,6.12
2019-04-07T09:39:20.527Z,5.78
2019-04-07T09:42:00.952Z,5.95
2019-04-07T09:44:36.554Z,6.00
2019-04-07T09:47:04.318Z,6.22
2019-04-07T09:49:52.557Z,6.95
2019-04-07T09:52:31.832Z,5.80
2019-04-07T09:55:09.542Z,7.62
2019-04-07T09:57:41.904Z,7.60
2019-04-07T10:00:14.313Z,9.43
2019-04-07T10:02:54.998Z,7.65
2019-04-07T10:05:42.397Z,7.97
2019-04-07T10:08:24.947Z,8.60
2019-04-07T10:10:55.972Z,8.88
2019-04-07T10:13:44.125Z,8.43
2019-04-07T10:16:15.442Z,8.68
2019-04-07T10:18:46.082Z,9.43
2019-04-07T10:21:40.471Z,9.63
2019-04-07T10:24:30.238Z,11.73
2019-04-07T10:27:04.125Z,13.13
2019-04-07T10:29:40.864Z,13.32
2019-04-07T10:32:29.886Z,13.45
2019-04-07T10:35:09.740Z,12.07
2019-04-07T10:37:40.540Z,14.63
2019-04-07T10:40:23.350Z,13.10
2019-04-07T10:43:12.781Z,11.68
2019-04-07T10:45:55.976Z,12.82
2019-04-07T10:48:36.646Z,14.40
2019-04-07T10:51:13.635Z,13.55
2019-04-07T10:53:48.268Z,12.70
2019-04-07T10:56:21.996Z,12.37
2019-04-07T10:59:01.894Z,12.33
2019-04-07T11:01:38.802Z,11.88
2019-04-07T11:04:09.598Z,11.70
2019-04-07T11:06:56.279Z,13.75
2019-04-07T11:09:32.886Z,13.40
2019-04-07T11:12:06.258Z,13.03
2019-04-07T11:14:49.083Z,12.58
2019-04-07T11:17:25.853Z,13.43
2019-04-07T11:19:56.702Z,12.82
2019-04-07T11:22:44.173Z,15.32
2019-04-07T11:25:31.613Z,14.33
2019-04-07T11:28:20.898Z,14.78
2019-04-07T11:31:00.484Z,13.13
2019-04-07T11:33:43.824Z,13.30
2019-04-07T11:36:18.001Z,12.07
2019-04-07T11:38:47.084Z,12.28
2019-04-07T11:41:21.539Z,13.35
2019-04-07T11:43:56.425Z,13.53
2019-04-07T11:46:33.904Z,13.08
2019-04-07T11:49:17.018Z,12.98
2019-04-07T11:51:50.849Z,11.68
2019-04-07T11:54:37.065Z,11.03
2019-04-07T11:57:24.162Z,12.65
2019-04-07T12:00:12.338Z,12.88
2019-04-07T12:02:46.772Z,12.33
2019-04-07T12:05:34.141Z,12.07
2019-04-07T12:08:20.333Z,12.23
2019-04-07T12:11:02.133Z,13.88
2019-04-07T12:13:44.929Z,12.28
2019-04-07T12:16:16.681Z,11.57
2019-04-07T12:18:52.393Z,12.65
2019-04-07T12:21:35.422Z,12.60
2019-04-07T12:24:04.788Z,13.35
2019-04-07T12:26:53.829Z,13.03
2019-04-07T12:29:40.690Z,13.30
2019-04-07T12:32:26.458Z,13.15
2019-04-07T12:34:57.174Z,12.28
2019-04-07T12:37:30.567Z,12.75
2019-04-07T12:40:20.807Z,13.13
2019-04-07T12:42:53.487Z,13.35
2019-04-07T12:45:30.413Z,14.70
2019-04-07T12:48:17.878Z,13.45
2019-04-07T12:51:04.609Z,14.47
2019-04-07T12:53:50.171Z,14.75
2019-04-07T12:56:38.029Z,13.13
2019-04-07T12:59:09.006Z,13.45
2019-04-07T13:01:44.555Z,13.72
2019-04-07T13:04:27.625Z,14.00
2019-04-07T13:07:02.437Z,13.65
2019-04-07T13:09:42.154Z,14.30
2019-04-07T13:12:20.280Z,13.00
2019-04-07T13:15:05.404Z,12.88
2019-04-07T13:17:52.772Z,14.23
2019-04-07T13:20:40.765Z,13.60
2019-04-07T13:23:23.930Z,11.25
2019-04-07T13:25:55.642Z,11.48
2019-04-07T13:28:30.610Z,11.10
2019-04-07T13:31:01.807Z,10.70
2019-04-07T13:33:33.012Z,10.80
2019-04-07T13:36:03.790Z,10.82
2019-04-07T13:38:34.492Z,9.73
2019-04-07T13:41:23.720Z,9.60
2019-04-07T13:44:07.681Z,9.30
2019-04-07T13:46:57.508Z,9.20
2019-04-07T13:49:34.236Z,9.03
2019-04-07T13:52:19.300Z,9.68
2019-04-07T13:54:49.821Z,8.28
2019-04-07T13:57:25.957Z,9.28
2019-04-07T14:00:13.539Z,9.05
2019-04-07T14:02:45.240Z,8.55
2019-04-07T14:05:19.009Z,10.98
2019-04-07T14:07:55.560Z,10.25
2019-04-07T14:10:33.330Z,9.38
2019-04-07T14:13:17.135Z,9.93
2019-04-07T14:15:56.685Z,9.68
2019-04-07T14:18:27.779Z,10.25
2019-04-07T14:21:01.695Z,10.35
2019-04-07T14:23:48.744Z,9.45
2019-04-07T14:26:28.339Z,9.05
2019-04-07T14:29:02.034Z,9.65
2019-04-07T14:31:39.088Z,10.03
2019-04-07T14:34:27.998Z,9.50
2019-04-07T14:37:15.302Z,9.50
2019-04-07T14:39:49.134Z,9.20
2019-04-07T14:42:19.903Z,9.15
2019-04-07T14:44:51.147Z,9.48
2019-04-07T14:47:25.119Z,9.28
2019-04-07T14:49:56.154Z,9.08
2019-04-07T14:52:27.152Z,9.88
2019-04-07T14:55:04.889Z,9.28
2019-04-07T14:57:51.320Z,9.55
2019-04-07T15:00:34.482Z,8.93
2019-04-07T15:03:04.081Z,8.93
2019-04-07T15:05:35.382Z,8.15
2019-04-07T15:08:12.156Z,8.58
2019-04-07T15:10:43.035Z,8.85
2019-04-07T15:13:17.161Z,8.30
2019-04-07T15:15:46.182Z,8.45
2019-04-07T15:18:15.170Z,8.68
2019-04-07T15:20:45.099Z,8.00
2019-04-07T15:23:14.306Z,8.20
2019-04-07T15:25:46.067Z,8.08
2019-04-07T15:28:15.395Z,7.90
2019-04-07T15:30:48.000Z,8.45
2019-04-07T15:33:15.942Z,8.78
2019-04-07T15:35:47.292Z,8.28
2019-04-07T15:38:16.465Z,7.28
2019-04-07T15:40:45.965Z,7.62
2019-04-07T15:43:15.841Z,7.62
2019-04-07T15:45:45.613Z,8.05
2019-04-07T15:48:14.816Z,7.12
2019-04-07T15:50:43.845Z,6.80
2019-04-07T15:53:14.374Z,5.72
2019-04-07T15:55:52.660Z,6.65
2019-04-07T15:58:15.291Z,6.62
2019-04-07T16:00:45.132Z,6.65
2019-04-07T16:03:16.887Z,6.55
2019-04-07T16:05:46.510Z,7.00
2019-04-07T16:08:16.125Z,7.75
2019-04-07T16:10:45.414Z,6.35
2019-04-07T16:13:15.246Z,6.33
2019-04-07T16:15:45.320Z,6.62
2019-04-07T16:18:15.494Z,6.78
2019-04-07T16:20:45.164Z,6.05
2019-04-07T16:23:17.507Z,7.35
2019-04-07T16:25:45.068Z,6.65
2019-04-07T16:28:15.783Z,8.13
2019-04-07T16:30:47.789Z,7.97
2019-04-07T16:33:16.345Z,8.65
2019-04-07T16:35:50.885Z,8.10
2019-04-07T16:38:16.381Z,7.05
2019-04-07T16:40:45.496Z,8.10
2019-04-07T16:43:17.356Z,8.23
2019-04-07T16:45:46.289Z,7.87
2019-04-07T16:48:16.412Z,8.38
2019-04-07T16:50:46.262Z,7.92
2019-04-07T16:53:16.406Z,7.80
2019-04-07T16:55:48.961Z,7.35
2019-04-07T16:58:16.484Z,7.10
2019-04-07T17:00:45.551Z,6.92
2019-04-07T17:03:15.392Z,7.28
2019-04-07T17:05:45.113Z,6.80
2019-04-07T17:08:17.734Z,7.53
2019-04-07T17:10:45.413Z,6.65
2019-04-07T17:13:20.150Z,6.70
2019-04-07T17:15:45.489Z,6.58
2019-04-07T17:18:35.592Z,6.83
2019-04-07T17:21:09.466Z,6.53
2019-04-07T17:23:39.695Z,6.47
2019-04-07T17:26:09.519Z,7.42
2019-04-07T17:28:42.086Z,7.17
2019-04-07T17:31:11.612Z,7.00
2019-04-07T17:33:41.523Z,6.78
2019-04-07T17:36:16.217Z,6.20
2019-04-07T17:38:46.053Z,6.53
2019-04-07T17:41:18.174Z,6.55
2019-04-07T17:44:04.443Z,6.47
2019-04-07T17:46:55.967Z,5.78
2019-04-07T17:49:30.904Z,5.22
2019-04-07T17:52:15.335Z,5.55
2019-04-07T17:54:55.766Z,5.58
2019-04-07T17:57:38.391Z,4.67
2019-04-07T18:00:26.948Z,5.22
2019-04-07T18:03:14.252Z,4.92
2019-04-07T18:05:57.800Z,4.55
2019-04-07T18:08:29.462Z,5.08
2019-04-07T18:11:12.948Z,4.50
2019-04-07T18:14:01.718Z,4.42
2019-04-07T18:16:48.898Z,4.60
2019-04-07T18:19:37.593Z,4.70
2019-04-07T18:22:24.828Z,4.37
2019-04-07T18:25:01.971Z,4.25
2019-04-07T18:27:34.079Z,4.33
2019-04-07T18:30:09.734Z,4.50
2019-04-07T18:32:42.278Z,4.37
2019-04-07T18:35:14.098Z,4.62
2019-04-07T18:37:44.783Z,4.75
2019-04-07T18:40:33.574Z,3.83
2019-04-07T18:43:18.970Z,3.67
2019-04-07T18:46:04.111Z,3.87
2019-04-07T18:48:50.262Z,4.10
2019-04-07T18:51:37.149Z,4.40
2019-04-07T18:54:17.181Z,4.30
2019-04-07T18:57:00.114Z,3.90
2019-04-07T18:59:33.432Z,4.08
2019-04-07T19:02:11.847Z,4.53
2019-04-07T19:04:51.593Z,4.20
2019-04-07T19:07:34.660Z,4.17
2019-04-07T19:10:15.135Z,3.60
2019-04-07T19:13:02.939Z,4.25
2019-04-07T19:15:37.196Z,3.80
2019-04-07T19:18:20.460Z,4.22
2019-04-07T19:20:54.111Z,4.10
2019-04-07T19:23:28.006Z,3.83
2019-04-07T19:25:57.755Z,4.00
2019-04-07T19:28:37.076Z,4.10
2019-04-07T19:31:10.760Z,3.60
2019-04-07T19:34:00.361Z,4.15
2019-04-07T19:36:45.009Z,3.65
2019-04-07T19:39:14.681Z,3.92
2019-04-07T19:42:00.926Z,3.77
2019-04-07T19:44:40.151Z,3.72
2019-04-07T19:47:18.273Z,3.55
2019-04-07T19:50:05.023Z,3.40
2019-04-07T19:52:39.806Z,3.47
2019-04-07T19:55:25.853Z,3.75
2019-04-07T19:58:01.922Z,3.60
2019-04-07T20:00:33.776Z,3.60
2019-04-07T20:03:11.204Z,3.25
2019-04-07T20:05:56.227Z,3.70
2019-04-07T20:08:43.723Z,3.85
2019-04-07T20:11:16.012Z,4.08
2019-04-07T20:14:02.932Z,3.83
2019-04-07T20:16:33.875Z,3.98
2019-04-07T20:19:13.470Z,2.98
2019-04-07T20:22:00.680Z,2.98
2019-04-07T20:24:49.579Z,3.17
2019-04-07T20:27:26.065Z,3.22
2019-04-07T20:30:04.493Z,2.95
2019-04-07T20:32:41.375Z,3.02
2019-04-07T20:35:29.703Z,3.50
2019-04-07T20:38:04.682Z,3.05
2019-04-07T20:40:41.983Z,3.45
2019-04-07T20:43:16.672Z,3.52
2019-04-07T20:45:50.052Z,3.50
2019-04-07T20:48:21.355Z,2.98
2019-04-07T20:50:58.325Z,4.35
2019-04-07T20:53:41.255Z,3.25
2019-04-07T20:56:14.541Z,2.80
2019-04-07T20:58:58.709Z,2.77
2019-04-07T21:01:29.105Z,3.10
2019-04-07T21:04:00.017Z,3.20
2019-04-07T21:06:31.680Z,2.83
2019-04-07T21:09:09.749Z,2.80
2019-04-07T21:11:46.194Z,3.00
2019-04-07T21:14:24.704Z,3.12
2019-04-07T21:17:10.748Z,2.92
2019-04-07T21:19:45.226Z,3.22
2019-04-07T21:22:23.887Z,3.22
2019-04-07T21:25:00.642Z,3.08
2019-04-07T21:27:34.825Z,3.35
2019-04-07T21:30:06.628Z,3.77
2019-04-07T21:32:40.679Z,3.40
2019-04-07T21:35:23.743Z,3.40
2019-04-07T21:38:10.585Z,3.52
2019-04-07T21:40:48.051Z,3.15
2019-04-07T21:43:36.046Z,3.50
2019-04-07T21:46:13.185Z,3.62
2019-04-07T21:49:01.743Z,3.22
2019-04-07T21:51:33.229Z,3.72
2019-04-07T21:54:06.272Z,3.65
2019-04-07T21:56:43.177Z,3.85
2019-04-07T21:59:31.438Z,3.55
2019-04-07T22:02:02.801Z,3.60
2019-04-07T22:04:36.573Z,3.67
2019-04-07T22:07:07.568Z,3.65
2019-04-07T22:09:38.604Z,3.77
2019-04-07T22:12:08.507Z,3.65
2019-04-07T22:14:40.627Z,3.85
2019-04-07T22:17:09.462Z,3.75
2019-04-07T22:19:44.114Z,4.33
2019-04-07T22:22:09.612Z,4.53
2019-04-07T22:24:39.526Z,3.72
2019-04-07T22:27:09.137Z,3.25
2019-04-07T22:29:38.310Z,3.20
2019-04-07T22:32:07.550Z,3.12
2019-04-07T22:34:37.636Z,3.65
2019-04-07T22:37:06.845Z,2.83
2019-04-07T22:39:36.096Z,3.10
2019-04-07T22:42:06.174Z,2.83
2019-04-07T22:44:35.859Z,3.05
2019-04-07T22:47:05.038Z,3.55
2019-04-07T22:49:34.032Z,2.60
2019-04-07T22:52:03.509Z,3.30
2019-04-07T22:54:32.857Z,2.90
2019-04-07T22:57:02.861Z,3.22
2019-04-07T22:59:32.266Z,3.60
2019-04-07T23:02:01.419Z,3.50
2019-04-07T23:04:30.667Z,2.55
2019-04-07T23:07:00.831Z,2.87
2019-04-07T23:09:30.154Z,3.15
2019-04-07T23:12:00.775Z,3.05
2019-04-07T23:14:30.153Z,3.40
2019-04-07T23:16:59.298Z,3.35
2019-04-07T23:19:29.029Z,3.52
2019-04-07T23:21:59.069Z,3.65
2019-04-07T23:24:28.852Z,3.17
2019-04-07T23:26:58.522Z,3.02
2019-04-07T23:29:28.311Z,3.60
2019-04-07T23:31:57.891Z,3.40
2019-04-07T23:34:27.487Z,3.70
2019-04-07T23:36:57.400Z,3.10
2019-04-07T23:39:27.088Z,3.67
2019-04-07T23:41:56.216Z,3.60
2019-04-07T23:44:25.530Z,3.45
2019-04-07T23:46:55.084Z,3.20
2019-04-07T23:49:24.307Z,2.92
2019-04-07T23:51:53.467Z,2.90
2019-04-07T23:54:22.578Z,3.02
2019-04-07T23:56:51.886Z,3.05
2019-04-07T23:59:20.867Z,3.17
